createdAt,value
2022-12-05T00:01:27.262Z,4.97
2022-12-05T00:03:57.130Z,5.13
2022-12-05T00:06:25.394Z,5.45
2022-12-05T00:08:53.030Z,4.25
2022-12-05T00:11:25.837Z,5.53
2022-12-05T00:13:55.118Z,4.68
2022-12-05T00:16:25.064Z,5.22
2022-12-05T00:21:25.034Z,4.25
2022-12-05T00:23:53.464Z,5.25
2022-12-05T00:26:20.898Z,5.30
2022-12-05T00:28:48.144Z,4.30
2022-12-05T00:31:17.738Z,4.47
2022-12-05T00:33:45.953Z,5.45
2022-12-05T00:36:15.911Z,4.28
2022-12-05T00:41:12.326Z,3.42
2022-12-05T00:43:39.678Z,5.00
2022-12-05T00:46:13.199Z,4.07
2022-12-05T00:48:40.933Z,4.60
2022-12-05T00:51:09.346Z,5.43
2022-12-05T00:53:37.049Z,5.38
2022-12-05T00:56:06.824Z,4.68
2022-12-05T00:58:34.863Z,4.65
2022-12-05T01:01:17.434Z,5.00
2022-12-05T01:03:45.610Z,4.78
2022-12-05T01:06:14.912Z,4.18
2022-12-05T01:08:42.214Z,5.15
2022-12-05T01:11:11.381Z,6.22
2022-12-05T01:13:38.409Z,5.32
2022-12-05T01:16:06.054Z,4.68
2022-12-05T01:18:33.227Z,6.40
2022-12-05T01:21:00.232Z,5.05
2022-12-05T01:23:27.213Z,5.25
2022-12-05T01:25:54.185Z,4.68
2022-12-05T01:28:21.285Z,4.63
2022-12-05T01:30:49.891Z,4.97
2022-12-05T01:33:17.845Z,6.00
2022-12-05T01:35:45.120Z,4.63
2022-12-05T01:38:13.720Z,4.28
2022-12-05T01:40:41.394Z,4.97
2022-12-05T01:43:16.297Z,4.20
2022-12-05T01:45:45.733Z,4.95
2022-12-05T01:48:20.924Z,4.63
2022-12-05T01:50:49.410Z,4.95
2022-12-05T01:53:17.284Z,4.25
2022-12-05T01:55:46.325Z,4.53
2022-12-05T01:58:13.804Z,4.18
2022-12-05T02:00:41.977Z,4.53
2022-12-05T02:03:13.466Z,4.78
2022-12-05T02:05:40.839Z,5.70
2022-12-05T02:08:10.083Z,5.32
2022-12-05T02:10:47.577Z,5.50
2022-12-05T02:13:20.473Z,5.13
2022-12-05T02:16:06.599Z,6.38
2022-12-05T02:18:46.676Z,4.95
2022-12-05T02:21:13.629Z,4.40
2022-12-05T02:23:49.446Z,5.20
2022-12-05T02:26:34.806Z,4.80
2022-12-05T02:29:16.922Z,4.13
2022-12-05T02:32:10.499Z,4.28
2022-12-05T02:34:46.297Z,5.32
2022-12-05T02:37:28.092Z,4.75
2022-12-05T02:40:01.202Z,5.45
2022-12-05T02:42:42.746Z,4.30
2022-12-05T02:45:14.252Z,4.25
2022-12-05T02:47:47.896Z,4.10
2022-12-05T02:50:20.411Z,5.15
2022-12-05T02:52:49.601Z,4.25
2022-12-05T02:55:18.786Z,5.15
2022-12-05T02:57:55.000Z,4.85
2022-12-05T03:00:22.054Z,4.60
2022-12-05T03:02:53.909Z,4.63
2022-12-05T03:05:34.673Z,4.28
2022-12-05T03:08:04.068Z,5.15
2022-12-05T03:10:33.601Z,4.25
2022-12-05T03:13:07.266Z,5.22
2022-12-05T03:15:43.935Z,3.50
2022-12-05T03:18:32.554Z,4.97
2022-12-05T03:21:15.383Z,5.47
2022-12-05T03:23:51.550Z,5.18
2022-12-05T03:26:24.640Z,4.40
2022-12-05T03:29:01.254Z,5.38
2022-12-05T03:31:38.573Z,5.53
2022-12-05T03:34:08.361Z,5.45
2022-12-05T03:36:44.176Z,4.30
2022-12-05T03:39:21.368Z,3.80
2022-12-05T03:42:11.562Z,4.57
2022-12-05T03:44:57.708Z,4.07
2022-12-05T03:47:33.888Z,5.38
2022-12-05T03:50:06.305Z,5.72
2022-12-05T03:53:18.001Z,4.20
2022-12-05T03:55:36.751Z,5.32
2022-12-05T03:58:12.884Z,4.57
2022-12-05T04:00:45.713Z,4.60
2022-12-05T04:03:23.244Z,4.18
2022-12-05T04:05:55.237Z,4.22
2022-12-05T04:08:30.985Z,5.20
2022-12-05T04:11:02.886Z,6.00
2022-12-05T04:13:46.208Z,5.60
2022-12-05T04:16:52.163Z,4.55
2022-12-05T04:20:05.561Z,5.07
2022-12-05T04:22:33.448Z,4.88
2022-12-05T04:25:21.249Z,5.50
2022-12-05T04:30:24.878Z,5.03
2022-12-05T04:32:55.649Z,3.70
2022-12-05T04:35:53.122Z,5.15
2022-12-05T04:38:32.458Z,5.22
2022-12-05T04:41:03.944Z,5.53
2022-12-05T04:43:35.679Z,6.13
2022-12-05T04:46:06.523Z,4.63
2022-12-05T04:48:35.631Z,4.82
2022-12-05T04:51:03.397Z,5.35
2022-12-05T04:53:31.749Z,4.43
2022-12-05T04:56:02.080Z,4.80
2022-12-05T04:58:31.093Z,5.22
2022-12-05T05:01:33.008Z,5.45
2022-12-05T05:04:07.609Z,5.15
2022-12-05T05:06:38.584Z,3.83
2022-12-05T05:09:05.871Z,3.58
2022-12-05T05:11:34.925Z,4.05
2022-12-05T05:14:02.982Z,5.57
2022-12-05T05:16:36.632Z,5.03
2022-12-05T05:19:04.980Z,9.05
2022-12-05T05:21:38.392Z,6.65
2022-12-05T05:24:06.779Z,6.22
2022-12-05T05:26:36.228Z,5.20
2022-12-05T05:29:04.089Z,5.18
2022-12-05T05:31:31.471Z,6.20
2022-12-05T05:33:59.833Z,4.72
2022-12-05T05:36:29.553Z,5.57
2022-12-05T05:38:59.965Z,9.00
2022-12-05T05:41:29.457Z,6.00
2022-12-05T05:43:57.277Z,6.70
2022-12-05T05:46:27.161Z,5.78
2022-12-05T05:48:54.699Z,3.67
2022-12-05T05:51:23.653Z,5.40
2022-12-05T05:53:50.652Z,8.57
2022-12-05T05:56:21.847Z,6.95
2022-12-05T05:58:56.188Z,4.97
2022-12-05T06:01:23.675Z,5.30
2022-12-05T06:03:51.336Z,5.05
2022-12-05T06:06:19.077Z,6.55
2022-12-05T06:08:46.694Z,4.22
2022-12-05T06:11:25.803Z,5.47
2022-12-05T06:13:55.823Z,5.07
2022-12-05T06:16:23.206Z,4.88
2022-12-05T06:18:50.423Z,4.20
2022-12-05T06:21:17.819Z,5.32
2022-12-05T06:23:45.071Z,4.95
2022-12-05T06:26:17.260Z,6.03
2022-12-05T06:28:44.602Z,4.60
2022-12-05T06:31:14.970Z,3.60
2022-12-05T06:33:42.251Z,5.82
2022-12-05T06:36:12.596Z,5.30
2022-12-05T06:38:42.252Z,5.10
2022-12-05T06:41:13.958Z,4.90
2022-12-05T06:43:41.404Z,4.60
2022-12-05T06:46:10.681Z,5.68
2022-12-05T06:48:37.788Z,4.30
2022-12-05T06:51:07.071Z,7.25
2022-12-05T06:53:34.087Z,5.07
2022-12-05T06:56:03.907Z,4.68
2022-12-05T06:58:31.633Z,5.53
2022-12-05T07:01:17.392Z,6.10
2022-12-05T07:03:44.576Z,4.05
2022-12-05T07:06:13.942Z,5.63
2022-12-05T07:08:41.590Z,5.28
2022-12-05T07:11:08.896Z,4.82
2022-12-05T07:13:35.920Z,5.95
2022-12-05T07:16:03.221Z,4.88
2022-12-05T07:18:30.356Z,6.40
2022-12-05T07:21:12.179Z,6.22
2022-12-05T07:23:40.445Z,5.03
2022-12-05T07:26:09.395Z,5.70
2022-12-05T07:28:37.010Z,6.32
2022-12-05T07:31:10.117Z,5.13
2022-12-05T07:33:37.750Z,5.15
2022-12-05T07:36:17.007Z,4.47
2022-12-05T07:38:44.955Z,5.15
2022-12-05T07:41:32.282Z,5.75
2022-12-05T07:44:00.660Z,5.75
2022-12-05T07:46:29.538Z,6.90
2022-12-05T07:48:56.964Z,5.68
2022-12-05T07:51:24.159Z,5.90
2022-12-05T07:53:51.249Z,4.95
2022-12-05T07:56:18.574Z,6.35
2022-12-05T07:58:47.191Z,5.63
2022-12-05T08:01:20.231Z,6.13
2022-12-05T08:03:47.872Z,5.70
2022-12-05T08:06:17.804Z,7.20
2022-12-05T08:11:18.431Z,6.88
2022-12-05T08:13:45.625Z,6.35
2022-12-05T08:16:16.375Z,5.20
2022-12-05T08:18:45.916Z,6.85
2022-12-05T08:21:19.335Z,6.45
2022-12-05T08:23:47.012Z,6.45
2022-12-05T08:26:17.453Z,7.60
2022-12-05T08:28:45.093Z,6.10
2022-12-05T08:31:15.035Z,7.45
2022-12-05T08:33:42.617Z,5.38
2022-12-05T08:36:12.340Z,7.00
2022-12-05T08:38:39.481Z,6.25
2022-12-05T08:41:09.309Z,7.78
2022-12-05T08:43:36.909Z,6.53
2022-12-05T08:46:04.858Z,6.50
2022-12-05T08:48:33.062Z,5.38
2022-12-05T08:51:04.391Z,7.50
2022-12-05T08:53:31.403Z,4.97
2022-12-05T08:56:02.689Z,6.07
2022-12-05T08:58:30.239Z,6.10
2022-12-05T09:01:14.551Z,5.63
2022-12-05T09:03:47.517Z,5.22
2022-12-05T09:06:18.330Z,5.55
2022-12-05T09:08:46.470Z,6.55
2022-12-05T09:11:18.769Z,6.43
2022-12-05T09:13:47.065Z,6.13
2022-12-05T09:16:26.681Z,7.25
2022-12-05T09:18:53.697Z,6.35
2022-12-05T09:21:23.968Z,6.38
2022-12-05T09:23:51.991Z,5.90
2022-12-05T09:26:24.785Z,6.60
2022-12-05T09:28:52.675Z,6.68
2022-12-05T09:31:22.508Z,9.45
2022-12-05T09:33:51.490Z,8.50
2022-12-05T09:36:23.960Z,7.15
2022-12-05T09:38:51.825Z,6.07
2022-12-05T09:41:47.320Z,6.22
2022-12-05T09:44:40.300Z,5.63
2022-12-05T09:47:28.801Z,6.53
2022-12-05T09:50:00.507Z,5.78
2022-12-05T09:52:31.781Z,6.07
2022-12-05T09:55:05.533Z,5.75
2022-12-05T09:57:39.908Z,7.03
2022-12-05T10:00:07.865Z,6.65
2022-12-05T10:02:58.076Z,7.07
2022-12-05T10:05:38.391Z,7.53
2022-12-05T10:08:26.625Z,6.40
2022-12-05T10:10:59.347Z,6.32
2022-12-05T10:14:14.478Z,7.45
2022-12-05T10:16:51.883Z,6.43
2022-12-05T10:19:28.434Z,6.35
2022-12-05T10:22:35.082Z,4.88
2022-12-05T10:25:05.639Z,6.55
2022-12-05T10:27:48.754Z,5.05
2022-12-05T10:30:21.513Z,4.63
2022-12-05T10:32:57.288Z,6.30
2022-12-05T10:37:56.958Z,5.65
2022-12-05T10:40:36.396Z,6.32
2022-12-05T10:43:05.330Z,5.53
2022-12-05T10:45:32.715Z,5.95
2022-12-05T10:47:59.866Z,6.25
2022-12-05T10:50:32.923Z,5.82
2022-12-05T10:53:03.065Z,4.88
2022-12-05T10:56:28.251Z,5.32
2022-12-05T10:58:38.536Z,5.93
2022-12-05T11:01:14.332Z,5.05
2022-12-05T11:03:43.589Z,5.47
2022-12-05T11:06:25.872Z,5.35
2022-12-05T11:09:04.283Z,6.13
2022-12-05T11:11:36.347Z,4.10
2022-12-05T11:14:24.229Z,5.88
2022-12-05T11:16:58.318Z,5.80
2022-12-05T11:19:34.440Z,5.30
2022-12-05T11:22:02.383Z,4.70
2022-12-05T11:24:38.476Z,6.05
2022-12-05T11:27:27.844Z,5.90
2022-12-05T11:30:21.349Z,6.35
2022-12-05T11:32:49.521Z,5.32
2022-12-05T11:35:16.447Z,4.63
2022-12-05T11:37:52.314Z,5.72
2022-12-05T11:40:38.111Z,5.13
2022-12-05T11:43:11.626Z,5.25
2022-12-05T11:46:00.149Z,6.57
2022-12-05T11:48:48.315Z,5.70
2022-12-05T11:51:18.310Z,5.43
2022-12-05T11:54:06.403Z,4.65
2022-12-05T11:56:39.535Z,5.18
2022-12-05T11:59:10.140Z,6.13
2022-12-05T12:02:04.560Z,5.70
2022-12-05T12:04:50.966Z,5.15
2022-12-05T12:07:30.175Z,5.75
2022-12-05T12:10:14.962Z,5.63
2022-12-05T12:13:08.918Z,4.72
2022-12-05T12:16:11.315Z,5.03
2022-12-05T12:18:54.821Z,4.57
2022-12-05T12:21:59.155Z,4.68
2022-12-05T12:24:37.891Z,4.88
2022-12-05T12:27:43.668Z,3.60
2022-12-05T12:30:22.114Z,3.83
2022-12-05T12:32:58.045Z,5.20
2022-12-05T12:35:30.854Z,4.10
2022-12-05T12:38:21.078Z,4.95
2022-12-05T12:40:54.594Z,6.10
2022-12-05T12:43:55.563Z,4.63
2022-12-05T12:46:26.812Z,5.68
2022-12-05T12:49:11.137Z,4.95
2022-12-05T12:51:45.351Z,4.10
2022-12-05T12:55:04.413Z,4.78
2022-12-05T12:58:16.198Z,4.75
2022-12-05T13:03:17.280Z,4.90
2022-12-05T13:05:54.396Z,4.32
2022-12-05T13:08:36.179Z,4.22
2022-12-05T13:11:08.459Z,4.53
2022-12-05T13:13:40.673Z,4.35
2022-12-05T13:16:09.606Z,3.78
2022-12-05T13:18:36.757Z,4.28
2022-12-05T13:21:08.309Z,4.35
2022-12-05T13:23:44.637Z,5.10
2022-12-05T13:26:13.522Z,4.55
2022-12-05T13:28:51.147Z,3.70
2022-12-05T13:31:19.624Z,4.35
2022-12-05T13:33:51.008Z,5.22
2022-12-05T13:36:42.869Z,4.40
2022-12-05T13:39:34.089Z,5.88
2022-12-05T13:42:16.215Z,3.78
2022-12-05T13:44:51.060Z,4.38
2022-12-05T13:47:32.748Z,4.43
2022-12-05T13:50:08.645Z,3.47
2022-12-05T13:55:37.364Z,4.13
2022-12-05T13:58:33.220Z,4.18
2022-12-05T14:01:24.964Z,3.47
2022-12-05T14:03:52.025Z,3.60
2022-12-05T14:06:39.880Z,3.65
2022-12-05T14:09:19.170Z,4.32
2022-12-05T14:12:27.869Z,4.55
2022-12-05T14:14:58.166Z,4.35
2022-12-05T14:17:29.472Z,4.70
2022-12-05T14:20:15.181Z,5.10
2022-12-05T14:22:58.047Z,4.38
2022-12-05T14:25:58.887Z,4.90
2022-12-05T14:28:31.979Z,4.22
2022-12-05T14:31:37.234Z,4.40
2022-12-05T14:34:22.246Z,4.13
2022-12-05T14:37:00.798Z,4.60
2022-12-05T14:39:39.797Z,4.03
2022-12-05T14:42:19.469Z,3.58
2022-12-05T14:44:51.932Z,4.30
2022-12-05T14:47:33.400Z,5.15
2022-12-05T14:50:02.824Z,4.65
2022-12-05T14:52:33.661Z,4.28
2022-12-05T14:55:06.135Z,4.05
2022-12-05T14:57:43.859Z,4.75
2022-12-05T15:00:21.617Z,4.85
2022-12-05T15:02:51.574Z,5.45
2022-12-05T15:07:53.291Z,4.15
2022-12-05T15:10:29.622Z,4.47
2022-12-05T15:13:18.848Z,4.68
2022-12-05T15:16:12.938Z,5.05
2022-12-05T15:18:56.872Z,3.65
2022-12-05T15:21:47.222Z,5.25
2022-12-05T15:24:17.051Z,5.05
2022-12-05T15:26:54.841Z,5.13
2022-12-05T15:29:28.189Z,4.90
2022-12-05T15:32:02.717Z,5.35
2022-12-05T15:34:44.113Z,4.90
2022-12-05T15:37:17.429Z,4.90
2022-12-05T15:40:14.364Z,4.95
2022-12-05T15:42:42.530Z,5.15
2022-12-05T15:45:15.328Z,4.72
2022-12-05T15:47:44.325Z,5.63
2022-12-05T15:50:27.330Z,4.85
2022-12-05T15:53:00.539Z,5.25
2022-12-05T15:55:38.952Z,5.03
2022-12-05T15:58:13.041Z,6.38
2022-12-05T16:00:45.210Z,5.85
2022-12-05T16:03:20.493Z,5.65
2022-12-05T16:05:59.396Z,5.20
2022-12-05T16:08:35.647Z,5.18
2022-12-05T16:11:10.042Z,4.63
2022-12-05T16:14:02.217Z,6.20
2022-12-05T16:16:36.312Z,5.80
2022-12-05T16:19:06.660Z,4.70
2022-12-05T16:21:39.131Z,5.53
2022-12-05T16:24:27.748Z,5.95
2022-12-05T16:26:59.155Z,5.05
2022-12-05T16:29:32.234Z,5.53
2022-12-05T16:32:01.770Z,5.43
2022-12-05T16:34:32.586Z,6.05
2022-12-05T16:37:01.492Z,5.55
2022-12-05T16:39:29.124Z,5.07
2022-12-05T16:41:56.511Z,4.70
2022-12-05T16:44:31.699Z,5.45
2022-12-05T16:46:58.873Z,5.90
2022-12-05T16:49:33.503Z,5.70
2022-12-05T16:52:12.391Z,4.78
2022-12-05T16:54:39.601Z,4.80
2022-12-05T16:57:06.915Z,4.38
2022-12-05T16:59:38.250Z,5.57
2022-12-05T17:02:12.141Z,4.28
2022-12-05T17:04:39.770Z,4.82
2022-12-05T17:07:06.979Z,4.75
2022-12-05T17:09:35.305Z,5.03
2022-12-05T17:12:17.701Z,5.10
2022-12-05T17:14:45.862Z,4.93
2022-12-05T17:17:16.000Z,5.72
2022-12-05T17:19:43.204Z,4.30
2022-12-05T17:22:12.435Z,4.20
2022-12-05T17:24:39.385Z,4.63
2022-12-05T17:27:10.499Z,4.85
2022-12-05T17:29:38.471Z,5.50
2022-12-05T17:32:05.775Z,5.15
2022-12-05T17:34:34.103Z,5.20
2022-12-05T17:37:01.104Z,4.60
2022-12-05T17:39:29.012Z,5.18
2022-12-05T17:41:56.408Z,4.78
2022-12-05T17:44:23.868Z,5.00
2022-12-05T17:46:50.953Z,4.90
2022-12-05T17:49:18.493Z,5.22
2022-12-05T17:52:20.123Z,4.30
2022-12-05T17:57:01.502Z,5.68
2022-12-05T17:59:47.415Z,5.50
2022-12-05T18:02:15.644Z,5.30
2022-12-05T18:04:42.666Z,4.63
2022-12-05T18:07:09.702Z,5.10
2022-12-05T18:09:36.678Z,4.82
2022-12-05T18:12:03.958Z,4.32
2022-12-05T18:14:31.982Z,5.45
2022-12-05T18:17:00.109Z,5.47
2022-12-05T18:19:27.157Z,4.93
2022-12-05T18:21:55.220Z,5.30
2022-12-05T18:24:25.144Z,5.80
2022-12-05T18:26:55.929Z,4.88
2022-12-05T18:29:23.731Z,4.70
2022-12-05T18:31:50.750Z,5.72
2022-12-05T18:34:17.903Z,5.70
2022-12-05T18:36:44.966Z,5.05
2022-12-05T18:39:16.623Z,4.38
2022-12-05T18:41:43.615Z,4.97
2022-12-05T18:44:10.616Z,4.95
2022-12-05T18:46:37.826Z,4.82
2022-12-05T18:49:06.226Z,4.70
2022-12-05T18:51:33.281Z,4.10
2022-12-05T18:54:00.307Z,4.72
2022-12-05T18:56:34.721Z,3.92
2022-12-05T18:59:05.080Z,4.32
2022-12-05T19:01:34.371Z,5.97
2022-12-05T19:04:02.911Z,4.07
2022-12-05T19:06:32.162Z,3.88
2022-12-05T19:09:02.261Z,4.53
2022-12-05T19:11:29.644Z,4.40
2022-12-05T19:13:58.007Z,3.85
2022-12-05T19:16:26.172Z,3.85
2022-12-05T19:18:59.611Z,3.83
2022-12-05T19:21:29.284Z,3.40
2022-12-05T19:23:57.465Z,3.65
2022-12-05T19:26:24.788Z,3.95
2022-12-05T19:28:52.398Z,3.38
2022-12-05T19:31:22.335Z,3.88
2022-12-05T19:36:24.030Z,3.60
2022-12-05T19:38:53.299Z,4.22
2022-12-05T19:41:23.269Z,4.10
2022-12-05T19:46:25.270Z,3.70
2022-12-05T19:48:56.404Z,4.05
2022-12-05T19:53:50.991Z,4.00
2022-12-05T19:56:23.032Z,3.88
2022-12-05T19:58:52.192Z,4.15
2022-12-05T20:01:36.371Z,3.75
2022-12-05T20:04:09.062Z,3.90
2022-12-05T20:06:54.172Z,6.65
2022-12-05T20:09:22.989Z,3.03
2022-12-05T20:11:55.950Z,3.05
2022-12-05T20:14:25.335Z,4.35
2022-12-05T20:16:56.765Z,3.65
2022-12-05T20:19:24.188Z,3.70
2022-12-05T20:21:51.393Z,3.83
2022-12-05T20:24:18.414Z,3.53
2022-12-05T20:26:45.466Z,3.53
2022-12-05T20:29:13.239Z,4.30
2022-12-05T20:31:42.504Z,3.10
2022-12-05T20:34:14.886Z,3.85
2022-12-05T20:36:42.862Z,4.15
2022-12-05T20:39:17.669Z,3.88
2022-12-05T20:41:45.334Z,4.32
2022-12-05T20:44:15.420Z,3.35
2022-12-05T20:46:42.737Z,3.80
2022-12-05T20:49:09.951Z,3.10
2022-12-05T20:51:41.045Z,4.47
2022-12-05T20:54:08.101Z,2.95
2022-12-05T20:56:35.866Z,3.88
2022-12-05T20:59:05.910Z,3.03
2022-12-05T21:01:36.306Z,3.88
2022-12-05T21:04:06.057Z,3.72
2022-12-05T21:06:36.332Z,3.67
2022-12-05T21:09:05.932Z,4.60
2022-12-05T21:11:32.915Z,3.20
2022-12-05T21:14:00.855Z,3.90
2022-12-05T21:16:28.256Z,3.50
2022-12-05T21:18:56.413Z,4.07
2022-12-05T21:21:25.951Z,3.95
2022-12-05T21:23:58.751Z,3.92
2022-12-05T21:26:28.538Z,3.63
2022-12-05T21:28:56.436Z,3.45
2022-12-05T21:31:31.884Z,3.42
2022-12-05T21:34:02.579Z,4.30
2022-12-05T21:36:31.335Z,3.75
2022-12-05T21:38:58.337Z,3.63
2022-12-05T21:41:25.693Z,3.78
2022-12-05T21:43:55.278Z,3.22
2022-12-05T21:46:26.866Z,3.78
2022-12-05T21:48:54.852Z,3.03
2022-12-05T21:51:22.497Z,4.15
2022-12-05T21:53:50.611Z,4.05
2022-12-05T21:56:19.804Z,3.83
2022-12-05T21:58:47.432Z,4.15
2022-12-05T22:01:26.030Z,3.70
2022-12-05T22:03:55.995Z,2.95
2022-12-05T22:08:49.724Z,4.05
2022-12-05T22:11:22.722Z,3.03
2022-12-05T22:13:50.371Z,2.40
2022-12-05T22:16:18.228Z,2.70
2022-12-05T22:18:45.714Z,2.50
2022-12-05T22:21:15.385Z,3.33
2022-12-05T22:23:42.933Z,3.38
2022-12-05T22:26:12.906Z,3.83
2022-12-05T22:31:09.364Z,3.38
2022-12-05T22:33:39.155Z,2.92
2022-12-05T22:36:09.085Z,3.15
2022-12-05T22:38:38.814Z,3.25
2022-12-05T22:41:14.170Z,3.17
2022-12-05T22:43:42.528Z,3.10
2022-12-05T22:46:12.806Z,3.40
2022-12-05T22:48:40.314Z,3.50
2022-12-05T22:51:08.353Z,4.20
2022-12-05T22:53:36.243Z,2.97
2022-12-05T22:56:08.561Z,3.28
2022-12-05T22:58:36.405Z,2.58
2022-12-05T23:01:22.896Z,3.55
2022-12-05T23:03:54.263Z,3.42
2022-12-05T23:06:23.453Z,3.42
2022-12-05T23:08:50.479Z,3.75
2022-12-05T23:11:21.050Z,2.55
2022-12-05T23:13:48.922Z,3.63
2022-12-05T23:16:21.422Z,2.63
2022-12-05T23:18:50.342Z,2.90
2022-12-05T23:21:21.316Z,2.58
2022-12-05T23:23:49.653Z,3.90
2022-12-05T23:26:18.235Z,3.22
2022-12-05T23:28:45.345Z,2.90
2022-12-05T23:31:13.241Z,3.10
2022-12-05T23:33:40.709Z,2.60
2022-12-05T23:36:08.925Z,2.92
2022-12-05T23:38:37.369Z,3.40
2022-12-05T23:41:12.045Z,1.73
2022-12-05T23:43:39.721Z,2.85
2022-12-05T23:46:08.948Z,2.50
2022-12-05T23:48:35.965Z,2.83
2022-12-05T23:51:15.185Z,3.42
2022-12-05T23:53:44.767Z,1.98
2022-12-05T23:56:17.659Z,2.83
2022-12-05T23:58:45.121Z,3.47
